createdAt,value
2016-10-26T16:26:03.452Z,1168
2016-10-26T16:28:53.247Z,964
2016-10-26T16:30:03.580Z,956
2016-10-26T16:31:13.906Z,924
2016-10-26T16:32:24.251Z,932
2016-10-26T16:33:34.580Z,936
2016-10-26T16:34:44.909Z,952
2016-10-26T16:35:55.236Z,928
2016-10-26T16:37:20.237Z,976
2016-10-26T16:38:31.067Z,1028
2016-10-26T16:39:41.403Z,1072
2016-10-26T16:41:06.312Z,1168
2016-10-26T16:42:16.737Z,1160
2016-10-26T16:43:27.064Z,1292
2016-10-26T16:44:37.395Z,1224
2016-10-26T16:45:47.726Z,1224
2016-10-26T16:46:58.099Z,1284
2016-10-26T16:48:08.527Z,1552
2016-10-26T16:49:18.857Z,1500
2016-10-26T16:50:29.188Z,1388
2016-10-26T16:51:39.519Z,1196
2016-10-26T16:52:49.885Z,1172
2016-10-26T16:54:00.219Z,1160
2016-10-26T16:55:11.418Z,1180
2016-10-26T16:56:21.760Z,1192
2016-10-26T16:57:32.199Z,1192
2016-10-26T16:58:42.629Z,1208
2016-10-26T16:59:53.057Z,1228
2016-10-26T17:01:03.963Z,1300
2016-10-26T17:02:14.391Z,1272
2016-10-26T17:03:24.823Z,1256
2016-10-26T17:04:35.803Z,1148
2016-10-26T17:05:46.229Z,1124
2016-10-26T17:06:56.655Z,1016
2016-10-26T17:08:07.085Z,988
2016-10-26T17:09:17.507Z,972
2016-10-26T17:10:27.930Z,908
2016-10-26T17:11:38.456Z,892
2016-10-26T17:12:49.389Z,908
2016-10-26T17:13:59.893Z,944
2016-10-26T17:15:10.434Z,972
2016-10-26T17:16:20.980Z,1012
2016-10-26T17:17:31.618Z,1076
2016-10-26T17:18:42.161Z,1144
2016-10-26T17:19:52.705Z,1204
2016-10-26T17:21:03.246Z,1204
2016-10-26T17:22:13.792Z,1408
2016-10-26T17:23:24.330Z,1452
2016-10-26T17:24:34.874Z,1428
2016-10-26T17:26:00.441Z,1388
2016-10-26T17:27:11.017Z,1404
2016-10-26T17:28:21.565Z,1352
2016-10-26T17:29:32.153Z,1360
2016-10-26T17:30:42.700Z,1392
2016-10-26T17:32:07.774Z,1344
2016-10-26T17:33:32.879Z,1320
2016-10-26T17:34:57.947Z,1260
2016-10-26T17:36:08.496Z,1196
2016-10-26T17:37:19.041Z,1236
2016-10-26T17:38:29.587Z,1172
2016-10-26T17:39:40.232Z,1036
2016-10-26T17:40:50.776Z,1084
2016-10-26T17:42:01.318Z,1116
2016-10-26T17:43:11.898Z,1156
2016-10-26T17:44:22.478Z,1244
2016-10-26T17:45:33.019Z,1252
2016-10-26T17:46:58.090Z,1300
2016-10-26T17:48:08.680Z,1344
2016-10-26T17:49:19.396Z,1340
2016-10-26T17:50:29.944Z,1332
2016-10-26T17:51:40.486Z,1320
2016-10-26T17:52:51.028Z,1284
2016-10-26T17:54:01.580Z,1188
2016-10-26T17:55:12.228Z,1232
2016-10-26T17:57:48.355Z,1228
2016-10-26T17:58:58.903Z,772
2016-10-26T18:00:09.551Z,1176
2016-10-26T18:01:20.091Z,644
2016-10-26T18:02:30.633Z,1020
2016-10-26T18:03:41.177Z,1216
2016-10-26T18:04:52.218Z,712
2016-10-26T18:06:02.864Z,624
2016-10-26T18:07:13.404Z,592
2016-10-26T18:08:23.948Z,552
2016-10-26T18:09:34.488Z,1024
2016-10-26T18:10:45.030Z,996
2016-10-26T18:11:55.675Z,544
2016-10-26T18:13:06.754Z,480
2016-10-26T18:14:17.301Z,416
2016-10-26T18:15:27.842Z,364
2016-10-26T18:16:38.386Z,352
2016-10-26T18:17:48.926Z,388
2016-10-26T18:18:59.466Z,452
2016-10-26T18:20:09.928Z,592
2016-10-26T18:21:20.355Z,772
2016-10-26T18:22:45.333Z,916
2016-10-26T18:23:55.755Z,908
2016-10-26T18:25:06.176Z,1332
2016-10-26T18:26:16.802Z,1408
2016-10-26T18:27:27.149Z,1388
2016-10-26T18:28:37.582Z,1308
2016-10-26T18:29:47.921Z,1256
2016-10-26T18:30:58.252Z,1216
2016-10-26T18:32:08.580Z,1140
2016-10-26T18:33:18.915Z,1116
2016-10-26T18:34:29.251Z,1096
2016-10-26T18:35:39.613Z,1028
2016-10-26T18:36:49.944Z,1020
2016-10-26T18:38:14.844Z,976
2016-10-26T18:39:25.171Z,984
2016-10-26T18:40:35.508Z,1004
2016-10-26T18:42:14.976Z,1024
2016-10-26T18:43:25.303Z,1008
2016-10-26T18:44:35.633Z,996
2016-10-26T18:45:45.965Z,1008
2016-10-26T18:46:56.318Z,984
2016-10-26T18:48:06.651Z,948
2016-10-26T18:49:16.988Z,948
2016-10-26T18:50:41.986Z,944
2016-10-26T18:51:52.313Z,904
2016-10-26T18:53:17.213Z,788
2016-10-26T18:54:27.549Z,872
2016-10-26T18:55:37.877Z,940
2016-10-26T18:56:48.213Z,976
2016-10-26T18:57:58.543Z,1020
2016-10-26T18:59:08.871Z,1000
2016-10-26T19:00:19.206Z,980
2016-10-26T19:01:44.683Z,1012
2016-10-26T19:02:55.010Z,980
2016-10-26T19:04:05.346Z,956
2016-10-26T19:05:30.243Z,852
2016-10-26T19:06:40.574Z,928
2016-10-26T19:07:50.908Z,980
2016-10-26T19:09:01.243Z,1020
2016-10-26T19:10:11.575Z,992
2016-10-26T19:11:21.933Z,992
2016-10-26T19:12:32.362Z,936
2016-10-26T19:13:42.688Z,992
2016-10-26T19:14:53.053Z,996
2016-10-26T19:16:03.379Z,1012
2016-10-26T19:17:13.734Z,1040
2016-10-26T19:18:24.060Z,1040
2016-10-26T19:19:34.391Z,1088
2016-10-26T19:20:44.721Z,1072
2016-10-26T19:21:55.050Z,1088
2016-10-26T19:23:05.400Z,1084
2016-10-26T19:24:15.835Z,992
2016-10-26T19:25:26.199Z,1016
2016-10-26T19:26:36.568Z,1060
2016-10-26T19:28:01.470Z,860
2016-10-26T19:29:11.800Z,668
2016-10-26T19:30:22.130Z,616
2016-10-26T19:31:32.490Z,524
2016-10-26T19:32:57.389Z,652
2016-10-26T19:34:07.729Z,608
2016-10-26T19:35:18.157Z,616
2016-10-26T19:36:28.494Z,476
2016-10-26T19:37:38.826Z,304
2016-10-26T19:38:49.158Z,332
2016-10-26T19:39:59.492Z,308
2016-10-26T19:41:09.927Z,332
2016-10-26T19:42:20.740Z,400
2016-10-26T19:43:31.071Z,492
2016-10-26T19:44:41.403Z,500
2016-10-26T19:45:51.732Z,492
2016-10-26T19:47:02.205Z,436
2016-10-26T19:48:13.019Z,396
2016-10-26T19:49:23.392Z,412
2016-10-26T19:50:33.731Z,428
2016-10-26T19:51:44.095Z,436
2016-10-26T19:52:54.421Z,444
2016-10-26T19:54:04.752Z,440
2016-10-26T19:55:15.092Z,456
2016-10-26T19:56:25.422Z,484
2016-10-26T19:57:35.786Z,528
2016-10-26T19:58:46.120Z,444
2016-10-26T19:59:56.456Z,440
2016-10-26T20:01:06.858Z,452
2016-10-26T20:02:17.192Z,412
2016-10-26T20:03:42.093Z,352
2016-10-26T20:04:52.422Z,336
2016-10-26T20:06:02.756Z,320
2016-10-26T20:07:13.090Z,332
2016-10-26T20:08:23.421Z,340
2016-10-26T20:09:33.858Z,328
2016-10-26T20:10:44.192Z,332
2016-10-26T20:11:54.523Z,348
2016-10-26T20:13:19.417Z,360
2016-10-26T20:14:29.767Z,404
2016-10-26T20:15:40.103Z,408
2016-10-26T20:16:50.432Z,412
2016-10-26T20:18:00.794Z,496
2016-10-26T20:19:11.131Z,456
2016-10-26T20:20:21.946Z,420
2016-10-26T20:21:32.283Z,384
2016-10-26T20:22:42.614Z,340
2016-10-26T20:23:52.941Z,316
2016-10-26T20:25:03.279Z,292
2016-10-26T20:26:13.610Z,256
2016-10-26T20:27:23.940Z,220
2016-10-26T20:28:34.265Z,188
2016-10-26T20:29:44.593Z,168
2016-10-26T20:30:54.920Z,164
2016-10-26T20:32:05.347Z,176
2016-10-26T20:33:15.679Z,180
2016-10-26T20:34:26.004Z,176
2016-10-26T20:35:36.753Z,180
2016-10-26T20:36:47.086Z,176
2016-10-26T20:37:57.443Z,172
2016-10-26T20:39:07.777Z,164
2016-10-26T20:40:18.111Z,172
2016-10-26T20:41:28.438Z,168
2016-10-26T20:42:38.766Z,164
2016-10-26T20:43:49.092Z,156
2016-10-26T20:44:59.422Z,152
2016-10-26T20:46:09.750Z,144
2016-10-26T20:47:20.079Z,140
2016-10-26T20:48:30.409Z,140
2016-10-26T20:49:40.841Z,132
2016-10-26T20:50:51.164Z,124
2016-10-26T20:52:01.505Z,120
2016-10-26T20:54:36.830Z,104
2016-10-26T20:55:47.156Z,92
2016-10-26T20:56:57.957Z,88
2016-10-26T20:58:08.293Z,76
2016-10-26T20:59:18.630Z,68
2016-10-26T21:00:29.060Z,64
2016-10-26T21:01:39.389Z,56
2016-10-26T21:02:49.715Z,56
2016-10-26T21:04:00.056Z,48
2016-10-26T21:05:10.399Z,40
2016-10-26T21:06:20.724Z,40
2016-10-26T21:07:31.051Z,36
2016-10-26T21:08:41.379Z,32
2016-10-26T21:10:06.274Z,28
2016-10-26T21:12:41.496Z,24
2016-10-26T21:13:51.820Z,20
2016-10-26T21:15:02.155Z,16
2016-10-26T21:16:12.583Z,16
2016-10-26T21:17:37.674Z,12
2016-10-26T21:20:12.901Z,8
2016-10-26T21:21:23.236Z,4
2016-10-26T21:22:33.662Z,8
2016-10-26T21:23:43.989Z,4
2016-10-26T21:24:54.312Z,0
2016-10-26T21:26:04.643Z,4
2016-10-26T21:27:15.047Z,0
2016-10-26T21:28:25.463Z,4
2016-10-26T21:29:35.886Z,16
2016-10-26T21:30:46.301Z,12
2016-10-26T21:32:11.276Z,12
2016-10-26T21:33:22.255Z,12
2016-10-26T21:34:32.680Z,12
2016-10-26T21:35:43.101Z,12
2016-10-26T21:36:53.516Z,16
2016-10-26T21:38:03.937Z,16
2016-10-26T21:39:14.453Z,12
2016-10-26T21:42:04.398Z,12
2016-10-26T21:43:14.817Z,12
2016-10-26T21:44:25.338Z,12
2016-10-26T21:45:35.753Z,12
2016-10-26T21:46:46.169Z,12
2016-10-26T21:49:21.561Z,12
2016-10-26T21:51:56.943Z,12
2016-10-26T21:53:07.362Z,16
2016-10-26T21:54:17.783Z,12
2016-10-26T21:55:28.298Z,12
2016-10-26T21:56:38.715Z,12
2016-10-26T21:57:49.137Z,12
2016-10-26T21:58:59.557Z,12
2016-10-26T22:00:24.621Z,12
2016-10-26T22:01:35.035Z,12
2016-10-26T22:02:45.496Z,12
2016-10-26T22:03:55.913Z,12
2016-10-26T22:05:35.437Z,12
2016-10-26T22:07:00.405Z,12
2016-10-26T22:08:10.829Z,12
2016-10-26T22:09:21.295Z,12
2016-10-26T22:10:46.261Z,12
2016-10-26T22:11:56.604Z,12
2016-10-26T22:13:21.501Z,12
2016-10-26T22:14:31.831Z,12
2016-10-26T22:15:42.269Z,12
2016-10-26T22:16:52.600Z,12
2016-10-26T22:19:27.816Z,12
2016-10-26T22:20:38.144Z,12
2016-10-26T22:21:48.473Z,12
2016-10-26T22:22:58.801Z,12
2016-10-26T22:24:09.125Z,12
2016-10-26T22:25:19.452Z,12
2016-10-26T22:26:29.880Z,12
2016-10-26T22:27:40.274Z,8
2016-10-26T22:29:05.171Z,8
2016-10-26T22:30:15.498Z,8
2016-10-26T22:31:25.942Z,16
2016-10-26T22:32:36.265Z,16
2016-10-26T22:33:46.591Z,16
2016-10-26T22:34:56.921Z,12
2016-10-26T22:36:07.251Z,12
2016-10-26T22:37:17.685Z,4
2016-10-26T22:38:28.019Z,4
2016-10-26T22:39:52.914Z,12
2016-10-26T22:41:03.244Z,12
2016-10-26T22:42:13.674Z,12
2016-10-26T22:43:24.004Z,12
2016-10-26T22:44:34.330Z,16
2016-10-26T22:45:44.656Z,12
2016-10-26T22:46:55.012Z,12
2016-10-26T22:48:05.441Z,12
2016-10-26T22:49:15.772Z,12
2016-10-26T22:50:26.099Z,12
2016-10-26T22:51:36.428Z,12
2016-10-26T22:52:46.753Z,12
2016-10-26T22:54:11.644Z,12
2016-10-26T22:55:21.969Z,12
2016-10-26T22:56:32.291Z,12
2016-10-26T22:57:42.620Z,12
2016-10-26T22:58:52.941Z,12
2016-10-26T23:00:03.272Z,12
2016-10-26T23:01:13.595Z,12
2016-10-26T23:02:23.950Z,12
2016-10-26T23:03:34.278Z,12
2016-10-26T23:04:44.598Z,12
2016-10-26T23:05:54.927Z,12
2016-10-26T23:07:19.819Z,12
2016-10-26T23:08:30.147Z,12
2016-10-26T23:09:55.045Z,8
2016-10-26T23:11:05.372Z,12
2016-10-26T23:12:15.707Z,12
2016-10-26T23:13:26.038Z,12
2016-10-26T23:14:36.834Z,12
2016-10-26T23:15:47.264Z,12
2016-10-26T23:16:57.586Z,8
2016-10-26T23:18:07.917Z,12
2016-10-26T23:19:18.252Z,12
2016-10-26T23:20:28.578Z,12
2016-10-26T23:21:39.006Z,12
2016-10-26T23:22:49.346Z,16
2016-10-26T23:23:59.673Z,12
2016-10-26T23:25:10.002Z,12
2016-10-26T23:26:20.330Z,12
2016-10-26T23:27:30.690Z,12
2016-10-26T23:28:41.016Z,12
2016-10-26T23:29:51.351Z,8
2016-10-26T23:31:01.710Z,12
2016-10-26T23:32:12.057Z,8
2016-10-26T23:33:36.950Z,12
2016-10-26T23:34:47.274Z,12
2016-10-26T23:35:57.595Z,12
2016-10-26T23:37:07.963Z,12
2016-10-26T23:38:18.391Z,12
2016-10-26T23:39:28.720Z,12
2016-10-26T23:40:39.045Z,12
2016-10-26T23:41:49.371Z,12
2016-10-26T23:42:59.733Z,12
2016-10-26T23:44:10.159Z,12
2016-10-26T23:45:20.487Z,12
2016-10-26T23:46:30.824Z,12
2016-10-26T23:47:41.148Z,8
2016-10-26T23:48:51.480Z,12
2016-10-26T23:50:01.803Z,12
2016-10-26T23:51:12.138Z,12
2016-10-26T23:54:01.920Z,12
2016-10-26T23:55:12.433Z,12
2016-10-26T23:56:22.881Z,8
2016-10-26T23:57:33.330Z,8
2016-10-26T23:58:43.772Z,12
2016-10-26T23:59:54.216Z,8
